Dundee, New Jersey
Current Conditions -  °F | °C
As of 3:51 AM on Sunday 26 Oct 2014 (Local Time) from KTEB Reporting Station
Clear Clear  
Wind Chill: 55°   Ceiling: Unl
Heat Index: 55°   Visibility: 10mi
Dew Point: 45°   Wind: 6mph
Humidity: 69%   Direction: 240°WSW
Pressure: 29.54"   Gusts: NA
Location:  40.8575°N, 74.1285°W
Report Text: KTEB 260751Z 24005KT 10SM CLR 13/07 A2954 RMK AO2 SLP004 T01280072
Loading
Personal Weather Stations






























Interactive Weather Map
Tropical Storm Tracking
New forecast layout! Learn more

10-Day Weather Forecast

Advertisements
Track Severe Weather on mobile